sensor_id;sensor_type;location;lat;lon;timestamp;P1;durP1;ratioP1;P2;durP2;ratioP2
6133;SDS011;3098;42.678;23.364;2024-03-08T00:01:35;3.50;;;2.22;;
6133;SDS011;3098;42.678;23.364;2024-03-08T00:04:01;2.38;;;1.52;;
6133;SDS011;3098;42.678;23.364;2024-03-08T00:06:27;2.78;;;1.45;;
6133;SDS011;3098;42.678;23.364;2024-03-08T00:08:52;4.38;;;2.30;;
6133;SDS011;3098;42.678;23.364;2024-03-08T00:11:17;7.40;;;4.03;;
6133;SDS011;3098;42.678;23.364;2024-03-08T00:13:43;6.30;;;3.40;;
6133;SDS011;3098;42.678;23.364;2024-03-08T00:16:10;3.53;;;2.22;;
6133;SDS011;3098;42.678;23.364;2024-03-08T00:18:35;7.72;;;2.80;;
6133;SDS011;3098;42.678;23.364;2024-03-08T00:21:01;4.13;;;2.20;;
6133;SDS011;3098;42.678;23.364;2024-03-08T00:23:27;5.70;;;3.40;;
6133;SDS011;3098;42.678;23.364;2024-03-08T00:25:53;5.20;;;2.83;;
6133;SDS011;3098;42.678;23.364;2024-03-08T00:28:20;5.65;;;2.92;;
6133;SDS011;3098;42.678;23.364;2024-03-08T00:30:46;6.40;;;3.10;;
6133;SDS011;3098;42.678;23.364;2024-03-08T00:33:12;5.32;;;2.65;;
6133;SDS011;3098;42.678;23.364;2024-03-08T00:35:38;4.82;;;2.53;;
6133;SDS011;3098;42.678;23.364;2024-03-08T00:38:04;5.13;;;2.65;;
6133;SDS011;3098;42.678;23.364;2024-03-08T00:40:29;6.57;;;3.63;;
6133;SDS011;3098;42.678;23.364;2024-03-08T00:42:55;7.30;;;3.72;;
6133;SDS011;3098;42.678;23.364;2024-03-08T00:45:20;9.05;;;3.05;;
6133;SDS011;3098;42.678;23.364;2024-03-08T00:47:47;15.63;;;7.13;;
6133;SDS011;3098;42.678;23.364;2024-03-08T00:50:13;4.55;;;2.50;;
6133;SDS011;3098;42.678;23.364;2024-03-08T00:52:38;3.03;;;1.80;;
6133;SDS011;3098;42.678;23.364;2024-03-08T00:55:04;3.63;;;1.73;;
6133;SDS011;3098;42.678;23.364;2024-03-08T00:57:30;1.63;;;1.10;;
6133;SDS011;3098;42.678;23.364;2024-03-08T00:59:56;2.53;;;1.30;;
6133;SDS011;3098;42.678;23.364;2024-03-08T01:02:22;3.45;;;1.20;;
6133;SDS011;3098;42.678;23.364;2024-03-08T01:04:48;1.70;;;0.77;;
6133;SDS011;3098;42.678;23.364;2024-03-08T01:07:15;2.42;;;1.45;;
6133;SDS011;3098;42.678;23.364;2024-03-08T01:09:41;5.45;;;1.60;;
6133;SDS011;3098;42.678;23.364;2024-03-08T01:12:06;2.40;;;1.42;;
6133;SDS011;3098;42.678;23.364;2024-03-08T01:14:32;2.72;;;1.40;;
6133;SDS011;3098;42.678;23.364;2024-03-08T01:16:58;2.22;;;1.50;;
6133;SDS011;3098;42.678;23.364;2024-03-08T01:19:24;3.28;;;2.08;;
6133;SDS011;3098;42.678;23.364;2024-03-08T01:21:50;2.38;;;1.30;;
6133;SDS011;3098;42.678;23.364;2024-03-08T01:24:16;2.60;;;1.73;;
6133;SDS011;3098;42.678;23.364;2024-03-08T01:26:45;3.00;;;1.88;;
6133;SDS011;3098;42.678;23.364;2024-03-08T01:29:11;4.00;;;1.95;;
6133;SDS011;3098;42.678;23.364;2024-03-08T01:31:37;3.05;;;2.08;;
6133;SDS011;3098;42.678;23.364;2024-03-08T01:34:02;4.10;;;2.47;;
6133;SDS011;3098;42.678;23.364;2024-03-08T01:36:28;4.00;;;2.28;;
6133;SDS011;3098;42.678;23.364;2024-03-08T01:38:53;3.67;;;2.17;;
6133;SDS011;3098;42.678;23.364;2024-03-08T01:41:19;3.53;;;2.33;;
6133;SDS011;3098;42.678;23.364;2024-03-08T01:43:45;4.03;;;2.00;;
6133;SDS011;3098;42.678;23.364;2024-03-08T01:46:11;2.33;;;1.58;;
6133;SDS011;3098;42.678;23.364;2024-03-08T01:48:40;2.85;;;1.67;;
6133;SDS011;3098;42.678;23.364;2024-03-08T01:51:07;2.97;;;1.63;;
6133;SDS011;3098;42.678;23.364;2024-03-08T01:53:33;4.72;;;2.03;;
6133;SDS011;3098;42.678;23.364;2024-03-08T01:56:00;2.30;;;1.48;;
6133;SDS011;3098;42.678;23.364;2024-03-08T01:58:28;3.97;;;2.45;;
6133;SDS011;3098;42.678;23.364;2024-03-08T02:00:55;3.00;;;1.75;;
6133;SDS011;3098;42.678;23.364;2024-03-08T02:03:22;3.40;;;1.92;;
6133;SDS011;3098;42.678;23.364;2024-03-08T02:05:47;2.63;;;1.55;;
6133;SDS011;3098;42.678;23.364;2024-03-08T02:08:13;2.45;;;1.73;;
6133;SDS011;3098;42.678;23.364;2024-03-08T02:10:43;2.80;;;1.73;;
6133;SDS011;3098;42.678;23.364;2024-03-08T02:13:10;2.30;;;1.67;;
6133;SDS011;3098;42.678;23.364;2024-03-08T02:15:55;3.90;;;2.00;;
6133;SDS011;3098;42.678;23.364;2024-03-08T02:18:24;2.22;;;1.55;;
6133;SDS011;3098;42.678;23.364;2024-03-08T02:21:00;2.60;;;1.80;;
6133;SDS011;3098;42.678;23.364;2024-03-08T02:23:27;3.33;;;1.58;;
6133;SDS011;3098;42.678;23.364;2024-03-08T02:25:54;2.55;;;1.35;;
6133;SDS011;3098;42.678;23.364;2024-03-08T02:28:21;3.30;;;1.35;;
6133;SDS011;3098;42.678;23.364;2024-03-08T02:30:47;2.42;;;1.02;;
6133;SDS011;3098;42.678;23.364;2024-03-08T02:33:14;1.90;;;1.10;;
6133;SDS011;3098;42.678;23.364;2024-03-08T02:35:45;1.65;;;0.98;;
6133;SDS011;3098;42.678;23.364;2024-03-08T02:38:17;1.30;;;0.93;;
6133;SDS011;3098;42.678;23.364;2024-03-08T02:40:44;1.85;;;1.20;;
6133;SDS011;3098;42.678;23.364;2024-03-08T02:43:11;1.90;;;1.40;;
6133;SDS011;3098;42.678;23.364;2024-03-08T02:45:37;0.80;;;0.80;;
6133;SDS011;3098;42.678;23.364;2024-03-08T02:48:03;1.42;;;0.80;;
6133;SDS011;3098;42.678;23.364;2024-03-08T02:50:31;1.73;;;0.95;;
6133;SDS011;3098;42.678;23.364;2024-03-08T02:52:57;1.98;;;1.30;;
6133;SDS011;3098;42.678;23.364;2024-03-08T02:55:23;1.20;;;0.88;;
6133;SDS011;3098;42.678;23.364;2024-03-08T02:57:51;1.98;;;1.20;;
6133;SDS011;3098;42.678;23.364;2024-03-08T03:00:17;1.27;;;1.02;;
6133;SDS011;3098;42.678;23.364;2024-03-08T03:02:44;0.77;;;0.60;;
6133;SDS011;3098;42.678;23.364;2024-03-08T03:05:11;1.42;;;0.80;;
6133;SDS011;3098;42.678;23.364;2024-03-08T03:07:37;1.02;;;0.63;;
6133;SDS011;3098;42.678;23.364;2024-03-08T03:10:03;0.93;;;0.70;;
6133;SDS011;3098;42.678;23.364;2024-03-08T03:12:29;0.93;;;0.70;;
6133;SDS011;3098;42.678;23.364;2024-03-08T03:14:56;0.73;;;0.68;;
6133;SDS011;3098;42.678;23.364;2024-03-08T03:17:23;1.08;;;0.80;;
6133;SDS011;3098;42.678;23.364;2024-03-08T03:19:49;1.27;;;0.60;;
6133;SDS011;3098;42.678;23.364;2024-03-08T03:22:17;1.70;;;0.98;;
6133;SDS011;3098;42.678;23.364;2024-03-08T03:24:43;1.02;;;0.70;;
6133;SDS011;3098;42.678;23.364;2024-03-08T03:27:09;1.48;;;1.02;;
6133;SDS011;3098;42.678;23.364;2024-03-08T03:29:38;1.92;;;0.80;;
6133;SDS011;3098;42.678;23.364;2024-03-08T03:32:13;1.80;;;0.90;;
6133;SDS011;3098;42.678;23.364;2024-03-08T03:34:42;2.03;;;1.00;;
6133;SDS011;3098;42.678;23.364;2024-03-08T03:37:09;1.10;;;0.82;;
6133;SDS011;3098;42.678;23.364;2024-03-08T03:39:37;0.90;;;0.70;;
6133;SDS011;3098;42.678;23.364;2024-03-08T03:42:18;1.42;;;1.00;;
6133;SDS011;3098;42.678;23.364;2024-03-08T03:44:48;2.42;;;0.75;;
6133;SDS011;3098;42.678;23.364;2024-03-08T03:47:14;1.25;;;0.80;;
6133;SDS011;3098;42.678;23.364;2024-03-08T03:49:43;1.23;;;0.73;;
6133;SDS011;3098;42.678;23.364;2024-03-08T03:52:10;2.03;;;1.00;;
6133;SDS011;3098;42.678;23.364;2024-03-08T03:54:35;2.85;;;1.00;;
6133;SDS011;3098;42.678;23.364;2024-03-08T03:57:01;1.23;;;0.90;;
6133;SDS011;3098;42.678;23.364;2024-03-08T03:59:27;1.17;;;0.80;;
6133;SDS011;3098;42.678;23.364;2024-03-08T04:01:53;0.88;;;0.55;;
6133;SDS011;3098;42.678;23.364;2024-03-08T04:04:19;1.33;;;0.90;;
6133;SDS011;3098;42.678;23.364;2024-03-08T04:06:49;1.70;;;1.10;;
6133;SDS011;3098;42.678;23.364;2024-03-08T04:09:16;2.13;;;1.10;;
6133;SDS011;3098;42.678;23.364;2024-03-08T04:11:44;1.42;;;0.93;;
6133;SDS011;3098;42.678;23.364;2024-03-08T04:14:10;1.58;;;1.00;;
6133;SDS011;3098;42.678;23.364;2024-03-08T04:16:37;1.52;;;1.08;;
6133;SDS011;3098;42.678;23.364;2024-03-08T04:19:02;0.57;;;0.55;;
6133;SDS011;3098;42.678;23.364;2024-03-08T04:21:30;2.35;;;1.00;;
6133;SDS011;3098;42.678;23.364;2024-03-08T04:23:56;1.75;;;1.08;;
6133;SDS011;3098;42.678;23.364;2024-03-08T04:26:22;1.85;;;0.95;;
6133;SDS011;3098;42.678;23.364;2024-03-08T04:28:47;4.53;;;1.20;;
6133;SDS011;3098;42.678;23.364;2024-03-08T04:31:13;2.30;;;1.13;;
6133;SDS011;3098;42.678;23.364;2024-03-08T04:33:39;0.85;;;0.77;;
6133;SDS011;3098;42.678;23.364;2024-03-08T04:36:04;2.70;;;1.10;;
6133;SDS011;3098;42.678;23.364;2024-03-08T04:38:30;2.40;;;1.35;;
6133;SDS011;3098;42.678;23.364;2024-03-08T04:40:56;2.10;;;1.30;;
6133;SDS011;3098;42.678;23.364;2024-03-08T04:43:23;2.88;;;1.35;;
6133;SDS011;3098;42.678;23.364;2024-03-08T04:45:52;1.90;;;1.30;;
6133;SDS011;3098;42.678;23.364;2024-03-08T04:48:18;3.10;;;1.60;;
6133;SDS011;3098;42.678;23.364;2024-03-08T04:50:44;3.60;;;1.75;;
6133;SDS011;3098;42.678;23.364;2024-03-08T04:53:10;2.60;;;1.52;;
6133;SDS011;3098;42.678;23.364;2024-03-08T04:55:36;3.22;;;2.13;;
6133;SDS011;3098;42.678;23.364;2024-03-08T04:58:02;2.28;;;1.27;;
6133;SDS011;3098;42.678;23.364;2024-03-08T05:00:30;2.10;;;1.52;;
6133;SDS011;3098;42.678;23.364;2024-03-08T05:02:56;3.30;;;1.70;;
6133;SDS011;3098;42.678;23.364;2024-03-08T05:05:23;3.38;;;1.85;;
6133;SDS011;3098;42.678;23.364;2024-03-08T05:07:50;2.40;;;1.40;;
6133;SDS011;3098;42.678;23.364;2024-03-08T05:10:15;3.10;;;1.70;;
6133;SDS011;3098;42.678;23.364;2024-03-08T05:12:42;4.50;;;1.63;;
6133;SDS011;3098;42.678;23.364;2024-03-08T05:15:08;2.00;;;1.40;;
6133;SDS011;3098;42.678;23.364;2024-03-08T05:17:34;2.53;;;1.70;;
6133;SDS011;3098;42.678;23.364;2024-03-08T05:19:59;1.80;;;1.30;;
6133;SDS011;3098;42.678;23.364;2024-03-08T05:22:25;3.20;;;1.20;;
6133;SDS011;3098;42.678;23.364;2024-03-08T05:24:51;2.20;;;1.20;;
6133;SDS011;3098;42.678;23.364;2024-03-08T05:27:16;2.15;;;1.50;;
6133;SDS011;3098;42.678;23.364;2024-03-08T05:29:42;4.40;;;2.50;;
6133;SDS011;3098;42.678;23.364;2024-03-08T05:32:08;6.80;;;3.50;;
6133;SDS011;3098;42.678;23.364;2024-03-08T05:34:34;6.03;;;3.55;;
6133;SDS011;3098;42.678;23.364;2024-03-08T05:37:01;5.22;;;2.38;;
6133;SDS011;3098;42.678;23.364;2024-03-08T05:39:27;5.32;;;3.35;;
6133;SDS011;3098;42.678;23.364;2024-03-08T05:41:52;6.28;;;3.47;;
6133;SDS011;3098;42.678;23.364;2024-03-08T05:44:20;6.22;;;3.72;;
6133;SDS011;3098;42.678;23.364;2024-03-08T05:46:46;4.35;;;2.40;;
6133;SDS011;3098;42.678;23.364;2024-03-08T05:49:11;7.43;;;3.38;;
6133;SDS011;3098;42.678;23.364;2024-03-08T05:51:38;6.68;;;3.53;;
6133;SDS011;3098;42.678;23.364;2024-03-08T05:54:05;6.20;;;2.88;;
6133;SDS011;3098;42.678;23.364;2024-03-08T05:56:35;9.18;;;4.93;;
6133;SDS011;3098;42.678;23.364;2024-03-08T05:59:01;5.68;;;3.97;;
6133;SDS011;3098;42.678;23.364;2024-03-08T06:01:27;11.52;;;4.45;;
6133;SDS011;3098;42.678;23.364;2024-03-08T06:03:54;9.55;;;5.00;;
6133;SDS011;3098;42.678;23.364;2024-03-08T06:06:24;9.25;;;5.25;;
6133;SDS011;3098;42.678;23.364;2024-03-08T06:08:50;10.38;;;4.90;;
6133;SDS011;3098;42.678;23.364;2024-03-08T06:11:16;14.00;;;6.82;;
6133;SDS011;3098;42.678;23.364;2024-03-08T06:13:44;13.98;;;6.93;;
6133;SDS011;3098;42.678;23.364;2024-03-08T06:16:13;13.77;;;7.65;;
6133;SDS011;3098;42.678;23.364;2024-03-08T06:18:38;14.80;;;7.32;;
6133;SDS011;3098;42.678;23.364;2024-03-08T06:21:04;11.38;;;6.55;;
6133;SDS011;3098;42.678;23.364;2024-03-08T06:23:33;9.20;;;5.15;;
6133;SDS011;3098;42.678;23.364;2024-03-08T06:26:03;12.35;;;5.38;;
6133;SDS011;3098;42.678;23.364;2024-03-08T06:28:29;9.80;;;5.47;;
6133;SDS011;3098;42.678;23.364;2024-03-08T06:30:55;8.70;;;4.88;;
6133;SDS011;3098;42.678;23.364;2024-03-08T06:33:21;5.85;;;3.33;;
6133;SDS011;3098;42.678;23.364;2024-03-08T06:35:46;5.63;;;3.22;;
6133;SDS011;3098;42.678;23.364;2024-03-08T06:38:11;5.85;;;3.45;;
6133;SDS011;3098;42.678;23.364;2024-03-08T06:40:37;8.35;;;3.92;;
6133;SDS011;3098;42.678;23.364;2024-03-08T06:43:03;6.55;;;3.58;;
6133;SDS011;3098;42.678;23.364;2024-03-08T06:45:32;6.35;;;3.50;;
6133;SDS011;3098;42.678;23.364;2024-03-08T06:47:57;7.20;;;3.45;;
6133;SDS011;3098;42.678;23.364;2024-03-08T06:50:23;6.40;;;3.60;;
6133;SDS011;3098;42.678;23.364;2024-03-08T06:52:49;7.70;;;4.20;;
6133;SDS011;3098;42.678;23.364;2024-03-08T06:55:18;6.70;;;3.58;;
6133;SDS011;3098;42.678;23.364;2024-03-08T06:57:45;4.80;;;2.83;;
6133;SDS011;3098;42.678;23.364;2024-03-08T07:00:10;7.43;;;3.45;;
6133;SDS011;3098;42.678;23.364;2024-03-08T07:02:38;7.93;;;4.03;;
6133;SDS011;3098;42.678;23.364;2024-03-08T07:05:05;6.30;;;3.45;;
6133;SDS011;3098;42.678;23.364;2024-03-08T07:07:35;6.78;;;4.18;;
6133;SDS011;3098;42.678;23.364;2024-03-08T07:10:01;5.50;;;3.88;;
6133;SDS011;3098;42.678;23.364;2024-03-08T07:12:26;5.28;;;3.25;;
6133;SDS011;3098;42.678;23.364;2024-03-08T07:14:52;5.22;;;2.80;;
6133;SDS011;3098;42.678;23.364;2024-03-08T07:17:18;6.72;;;3.08;;
6133;SDS011;3098;42.678;23.364;2024-03-08T07:19:44;5.07;;;3.20;;
6133;SDS011;3098;42.678;23.364;2024-03-08T07:22:10;5.55;;;3.53;;
6133;SDS011;3098;42.678;23.364;2024-03-08T07:24:36;7.85;;;4.28;;
6133;SDS011;3098;42.678;23.364;2024-03-08T07:27:02;4.47;;;3.15;;
6133;SDS011;3098;42.678;23.364;2024-03-08T07:29:30;4.47;;;2.80;;
6133;SDS011;3098;42.678;23.364;2024-03-08T07:31:55;5.45;;;2.72;;
6133;SDS011;3098;42.678;23.364;2024-03-08T07:34:53;5.05;;;2.85;;
6133;SDS011;3098;42.678;23.364;2024-03-08T07:37:20;4.45;;;2.45;;
6133;SDS011;3098;42.678;23.364;2024-03-08T07:39:46;6.85;;;3.10;;
6133;SDS011;3098;42.678;23.364;2024-03-08T07:42:12;7.85;;;3.63;;
6133;SDS011;3098;42.678;23.364;2024-03-08T07:44:38;6.47;;;3.00;;
6133;SDS011;3098;42.678;23.364;2024-03-08T07:47:04;4.25;;;2.58;;
6133;SDS011;3098;42.678;23.364;2024-03-08T07:49:29;5.95;;;3.63;;
6133;SDS011;3098;42.678;23.364;2024-03-08T07:51:56;4.63;;;3.20;;
6133;SDS011;3098;42.678;23.364;2024-03-08T07:54:21;3.78;;;2.15;;
6133;SDS011;3098;42.678;23.364;2024-03-08T07:56:47;7.07;;;2.53;;
6133;SDS011;3098;42.678;23.364;2024-03-08T07:59:13;4.10;;;1.98;;
6133;SDS011;3098;42.678;23.364;2024-03-08T08:01:40;4.00;;;2.42;;
6133;SDS011;3098;42.678;23.364;2024-03-08T08:04:06;5.53;;;2.88;;
6133;SDS011;3098;42.678;23.364;2024-03-08T08:06:31;5.07;;;3.20;;
6133;SDS011;3098;42.678;23.364;2024-03-08T08:08:58;4.78;;;2.63;;
6133;SDS011;3098;42.678;23.364;2024-03-08T08:11:26;5.32;;;2.70;;
6133;SDS011;3098;42.678;23.364;2024-03-08T08:13:53;5.28;;;2.85;;
6133;SDS011;3098;42.678;23.364;2024-03-08T08:16:20;3.45;;;2.17;;
6133;SDS011;3098;42.678;23.364;2024-03-08T08:18:47;5.30;;;3.05;;
6133;SDS011;3098;42.678;23.364;2024-03-08T08:21:13;3.38;;;1.80;;
6133;SDS011;3098;42.678;23.364;2024-03-08T08:23:39;2.33;;;1.63;;
6133;SDS011;3098;42.678;23.364;2024-03-08T08:26:05;3.83;;;2.08;;
6133;SDS011;3098;42.678;23.364;2024-03-08T08:28:32;3.25;;;2.10;;
6133;SDS011;3098;42.678;23.364;2024-03-08T08:30:58;6.43;;;2.22;;
6133;SDS011;3098;42.678;23.364;2024-03-08T08:33:24;2.67;;;1.70;;
6133;SDS011;3098;42.678;23.364;2024-03-08T08:35:51;2.63;;;1.42;;
6133;SDS011;3098;42.678;23.364;2024-03-08T08:38:19;5.53;;;2.08;;
6133;SDS011;3098;42.678;23.364;2024-03-08T08:40:45;4.00;;;1.90;;
6133;SDS011;3098;42.678;23.364;2024-03-08T08:43:12;2.58;;;1.90;;
6133;SDS011;3098;42.678;23.364;2024-03-08T08:45:39;5.53;;;2.63;;
6133;SDS011;3098;42.678;23.364;2024-03-08T08:48:05;3.53;;;2.03;;
6133;SDS011;3098;42.678;23.364;2024-03-08T08:50:31;4.18;;;2.42;;
6133;SDS011;3098;42.678;23.364;2024-03-08T08:52:57;5.47;;;2.30;;
6133;SDS011;3098;42.678;23.364;2024-03-08T08:55:23;4.07;;;1.60;;
6133;SDS011;3098;42.678;23.364;2024-03-08T08:57:52;3.67;;;1.65;;
6133;SDS011;3098;42.678;23.364;2024-03-08T09:00:21;2.33;;;0.90;;
6133;SDS011;3098;42.678;23.364;2024-03-08T09:02:49;2.20;;;1.40;;
6133;SDS011;3098;42.678;23.364;2024-03-08T09:05:16;2.65;;;1.63;;
6133;SDS011;3098;42.678;23.364;2024-03-08T09:07:42;3.00;;;1.80;;
6133;SDS011;3098;42.678;23.364;2024-03-08T09:10:11;2.35;;;1.25;;
6133;SDS011;3098;42.678;23.364;2024-03-08T09:12:40;2.63;;;1.55;;
6133;SDS011;3098;42.678;23.364;2024-03-08T09:15:06;4.38;;;1.58;;
6133;SDS011;3098;42.678;23.364;2024-03-08T09:17:38;2.13;;;1.40;;
6133;SDS011;3098;42.678;23.364;2024-03-08T09:20:09;3.47;;;1.83;;
6133;SDS011;3098;42.678;23.364;2024-03-08T09:22:38;2.55;;;1.75;;
6133;SDS011;3098;42.678;23.364;2024-03-08T09:25:05;3.85;;;2.15;;
6133;SDS011;3098;42.678;23.364;2024-03-08T09:27:35;4.68;;;1.80;;
6133;SDS011;3098;42.678;23.364;2024-03-08T09:30:01;5.35;;;2.58;;
6133;SDS011;3098;42.678;23.364;2024-03-08T09:32:27;3.40;;;1.92;;
6133;SDS011;3098;42.678;23.364;2024-03-08T09:34:53;3.28;;;1.60;;
6133;SDS011;3098;42.678;23.364;2024-03-08T09:37:21;6.03;;;2.33;;
6133;SDS011;3098;42.678;23.364;2024-03-08T09:39:46;5.00;;;1.90;;
6133;SDS011;3098;42.678;23.364;2024-03-08T09:42:13;4.68;;;1.75;;
6133;SDS011;3098;42.678;23.364;2024-03-08T09:44:44;5.00;;;1.67;;
6133;SDS011;3098;42.678;23.364;2024-03-08T09:47:13;3.20;;;1.60;;
6133;SDS011;3098;42.678;23.364;2024-03-08T09:49:39;2.22;;;1.40;;
6133;SDS011;3098;42.678;23.364;2024-03-08T09:52:06;1.88;;;1.05;;
6133;SDS011;3098;42.678;23.364;2024-03-08T09:54:33;1.92;;;1.42;;
6133;SDS011;3098;42.678;23.364;2024-03-08T09:56:59;2.38;;;1.23;;
6133;SDS011;3098;42.678;23.364;2024-03-08T09:59:27;2.53;;;1.33;;
6133;SDS011;3098;42.678;23.364;2024-03-08T10:01:53;2.55;;;1.25;;
6133;SDS011;3098;42.678;23.364;2024-03-08T10:04:21;1.85;;;1.42;;
6133;SDS011;3098;42.678;23.364;2024-03-08T10:06:47;2.78;;;1.70;;
6133;SDS011;3098;42.678;23.364;2024-03-08T10:09:14;3.60;;;1.83;;
6133;SDS011;3098;42.678;23.364;2024-03-08T10:11:41;3.58;;;1.83;;
6133;SDS011;3098;42.678;23.364;2024-03-08T10:14:08;1.42;;;1.00;;
6133;SDS011;3098;42.678;23.364;2024-03-08T10:16:34;2.08;;;1.20;;
6133;SDS011;3098;42.678;23.364;2024-03-08T10:19:00;2.75;;;1.35;;
6133;SDS011;3098;42.678;23.364;2024-03-08T10:21:26;1.50;;;1.10;;
6133;SDS011;3098;42.678;23.364;2024-03-08T10:23:53;2.30;;;1.38;;
6133;SDS011;3098;42.678;23.364;2024-03-08T10:26:20;5.07;;;1.77;;
6133;SDS011;3098;42.678;23.364;2024-03-08T10:28:50;1.38;;;1.20;;
6133;SDS011;3098;42.678;23.364;2024-03-08T10:31:18;1.35;;;0.93;;
6133;SDS011;3098;42.678;23.364;2024-03-08T10:33:45;2.75;;;1.10;;
6133;SDS011;3098;42.678;23.364;2024-03-08T10:36:11;2.30;;;1.40;;
6133;SDS011;3098;42.678;23.364;2024-03-08T10:38:38;2.40;;;1.30;;
6133;SDS011;3098;42.678;23.364;2024-03-08T10:41:08;2.05;;;1.33;;
6133;SDS011;3098;42.678;23.364;2024-03-08T10:43:44;2.70;;;1.30;;
6133;SDS011;3098;42.678;23.364;2024-03-08T10:49:05;2.08;;;1.02;;
6133;SDS011;3098;42.678;23.364;2024-03-08T10:51:36;1.75;;;1.10;;
6133;SDS011;3098;42.678;23.364;2024-03-08T10:54:03;3.80;;;1.50;;
6133;SDS011;3098;42.678;23.364;2024-03-08T10:56:30;1.83;;;1.13;;
6133;SDS011;3098;42.678;23.364;2024-03-08T10:58:56;1.98;;;1.15;;
6133;SDS011;3098;42.678;23.364;2024-03-08T11:01:21;1.55;;;1.27;;
6133;SDS011;3098;42.678;23.364;2024-03-08T11:03:49;2.05;;;1.15;;
6133;SDS011;3098;42.678;23.364;2024-03-08T11:06:18;1.42;;;0.90;;
6133;SDS011;3098;42.678;23.364;2024-03-08T11:08:48;1.95;;;1.10;;
6133;SDS011;3098;42.678;23.364;2024-03-08T11:11:25;3.08;;;1.05;;
6133;SDS011;3098;42.678;23.364;2024-03-08T11:18:50;1.80;;;1.07;;
6133;SDS011;3098;42.678;23.364;2024-03-08T11:21:18;3.88;;;1.63;;
6133;SDS011;3098;42.678;23.364;2024-03-08T11:23:58;2.17;;;1.27;;
6133;SDS011;3098;42.678;23.364;2024-03-08T11:26:30;1.05;;;0.88;;
6133;SDS011;3098;42.678;23.364;2024-03-08T11:29:32;2.35;;;1.20;;
6133;SDS011;3098;42.678;23.364;2024-03-08T11:32:11;1.38;;;0.90;;
6133;SDS011;3098;42.678;23.364;2024-03-08T11:34:41;1.05;;;0.88;;
6133;SDS011;3098;42.678;23.364;2024-03-08T11:37:11;1.05;;;0.90;;
6133;SDS011;3098;42.678;23.364;2024-03-08T11:39:39;1.65;;;1.10;;
6133;SDS011;3098;42.678;23.364;2024-03-08T11:42:05;3.33;;;0.88;;
6133;SDS011;3098;42.678;23.364;2024-03-08T11:44:31;2.35;;;1.10;;
6133;SDS011;3098;42.678;23.364;2024-03-08T11:46:57;2.33;;;1.10;;
6133;SDS011;3098;42.678;23.364;2024-03-08T11:49:23;2.00;;;1.00;;
6133;SDS011;3098;42.678;23.364;2024-03-08T11:51:51;3.13;;;1.55;;
6133;SDS011;3098;42.678;23.364;2024-03-08T11:54:17;2.85;;;1.40;;
6133;SDS011;3098;42.678;23.364;2024-03-08T11:56:43;1.35;;;1.10;;
6133;SDS011;3098;42.678;23.364;2024-03-08T11:59:12;1.67;;;0.90;;
6133;SDS011;3098;42.678;23.364;2024-03-08T12:01:38;1.50;;;1.00;;
6133;SDS011;3098;42.678;23.364;2024-03-08T12:04:04;1.55;;;1.10;;
6133;SDS011;3098;42.678;23.364;2024-03-08T12:06:37;2.10;;;1.10;;
6133;SDS011;3098;42.678;23.364;2024-03-08T12:09:13;1.23;;;0.80;;
6133;SDS011;3098;42.678;23.364;2024-03-08T12:11:39;2.22;;;1.23;;
6133;SDS011;3098;42.678;23.364;2024-03-08T12:14:06;1.42;;;1.13;;
6133;SDS011;3098;42.678;23.364;2024-03-08T12:16:32;1.25;;;1.00;;
6133;SDS011;3098;42.678;23.364;2024-03-08T12:18:57;1.52;;;0.88;;
6133;SDS011;3098;42.678;23.364;2024-03-08T12:21:23;1.10;;;0.73;;
6133;SDS011;3098;42.678;23.364;2024-03-08T12:26:39;1.55;;;1.20;;
6133;SDS011;3098;42.678;23.364;2024-03-08T12:31:57;1.58;;;1.10;;
6133;SDS011;3098;42.678;23.364;2024-03-08T12:34:25;1.33;;;1.13;;
6133;SDS011;3098;42.678;23.364;2024-03-08T12:36:52;2.15;;;0.98;;
6133;SDS011;3098;42.678;23.364;2024-03-08T12:39:19;1.20;;;0.80;;
6133;SDS011;3098;42.678;23.364;2024-03-08T12:41:55;1.95;;;1.02;;
6133;SDS011;3098;42.678;23.364;2024-03-08T12:44:24;1.95;;;1.17;;
6133;SDS011;3098;42.678;23.364;2024-03-08T12:46:50;5.20;;;1.17;;
6133;SDS011;3098;42.678;23.364;2024-03-08T12:49:18;1.30;;;0.95;;
6133;SDS011;3098;42.678;23.364;2024-03-08T12:51:47;1.95;;;1.00;;
6133;SDS011;3098;42.678;23.364;2024-03-08T12:54:13;1.23;;;0.88;;
6133;SDS011;3098;42.678;23.364;2024-03-08T12:56:39;1.42;;;0.90;;
6133;SDS011;3098;42.678;23.364;2024-03-08T12:59:07;1.98;;;0.80;;
6133;SDS011;3098;42.678;23.364;2024-03-08T13:01:33;1.45;;;0.95;;
6133;SDS011;3098;42.678;23.364;2024-03-08T13:04:02;2.72;;;1.75;;
6133;SDS011;3098;42.678;23.364;2024-03-08T13:06:29;3.50;;;0.52;;
6133;SDS011;3098;42.678;23.364;2024-03-08T13:08:56;1.58;;;0.85;;
6133;SDS011;3098;42.678;23.364;2024-03-08T13:11:23;4.78;;;1.10;;
6133;SDS011;3098;42.678;23.364;2024-03-08T13:13:50;1.30;;;0.90;;
6133;SDS011;3098;42.678;23.364;2024-03-08T13:16:16;1.77;;;1.00;;
6133;SDS011;3098;42.678;23.364;2024-03-08T13:18:44;1.25;;;0.90;;
6133;SDS011;3098;42.678;23.364;2024-03-08T13:21:10;1.20;;;0.90;;
6133;SDS011;3098;42.678;23.364;2024-03-08T13:23:39;1.27;;;1.08;;
6133;SDS011;3098;42.678;23.364;2024-03-08T13:26:08;1.77;;;1.00;;
6133;SDS011;3098;42.678;23.364;2024-03-08T13:28:37;1.55;;;1.00;;
6133;SDS011;3098;42.678;23.364;2024-03-08T13:31:05;4.20;;;1.35;;
6133;SDS011;3098;42.678;23.364;2024-03-08T13:33:31;1.00;;;0.80;;
6133;SDS011;3098;42.678;23.364;2024-03-08T13:36:01;1.65;;;0.93;;
6133;SDS011;3098;42.678;23.364;2024-03-08T13:38:31;1.90;;;0.63;;
6133;SDS011;3098;42.678;23.364;2024-03-08T13:40:59;1.52;;;0.68;;
6133;SDS011;3098;42.678;23.364;2024-03-08T13:43:24;1.80;;;1.05;;
6133;SDS011;3098;42.678;23.364;2024-03-08T13:45:52;1.63;;;1.08;;
6133;SDS011;3098;42.678;23.364;2024-03-08T13:48:17;1.67;;;0.93;;
6133;SDS011;3098;42.678;23.364;2024-03-08T13:50:43;2.83;;;1.00;;
6133;SDS011;3098;42.678;23.364;2024-03-08T13:53:09;1.95;;;1.02;;
6133;SDS011;3098;42.678;23.364;2024-03-08T13:55:35;1.55;;;0.90;;
6133;SDS011;3098;42.678;23.364;2024-03-08T13:58:01;2.03;;;1.23;;
6133;SDS011;3098;42.678;23.364;2024-03-08T14:00:27;1.05;;;0.90;;
6133;SDS011;3098;42.678;23.364;2024-03-08T14:02:58;2.67;;;0.80;;
6133;SDS011;3098;42.678;23.364;2024-03-08T14:05:24;2.10;;;1.00;;
6133;SDS011;3098;42.678;23.364;2024-03-08T14:07:49;3.70;;;1.00;;
6133;SDS011;3098;42.678;23.364;2024-03-08T14:10:15;1.90;;;1.10;;
6133;SDS011;3098;42.678;23.364;2024-03-08T14:12:42;1.15;;;0.90;;
6133;SDS011;3098;42.678;23.364;2024-03-08T14:15:09;1.63;;;0.80;;
6133;SDS011;3098;42.678;23.364;2024-03-08T14:17:36;0.65;;;0.60;;
6133;SDS011;3098;42.678;23.364;2024-03-08T14:20:02;3.97;;;1.30;;
6133;SDS011;3098;42.678;23.364;2024-03-08T14:22:29;1.58;;;1.10;;
6133;SDS011;3098;42.678;23.364;2024-03-08T14:24:56;2.22;;;1.40;;
6133;SDS011;3098;42.678;23.364;2024-03-08T14:27:22;1.85;;;1.42;;
6133;SDS011;3098;42.678;23.364;2024-03-08T14:29:48;2.20;;;1.45;;
6133;SDS011;3098;42.678;23.364;2024-03-08T14:32:14;1.52;;;1.10;;
6133;SDS011;3098;42.678;23.364;2024-03-08T14:34:39;2.78;;;1.35;;
6133;SDS011;3098;42.678;23.364;2024-03-08T14:37:05;3.42;;;1.33;;
6133;SDS011;3098;42.678;23.364;2024-03-08T14:39:36;1.67;;;1.02;;
6133;SDS011;3098;42.678;23.364;2024-03-08T14:42:02;1.38;;;0.95;;
6133;SDS011;3098;42.678;23.364;2024-03-08T14:44:28;2.50;;;1.23;;
6133;SDS011;3098;42.678;23.364;2024-03-08T14:46:57;2.53;;;1.15;;
6133;SDS011;3098;42.678;23.364;2024-03-08T14:49:23;2.72;;;1.40;;
6133;SDS011;3098;42.678;23.364;2024-03-08T14:51:52;2.15;;;1.73;;
6133;SDS011;3098;42.678;23.364;2024-03-08T14:54:19;2.72;;;1.50;;
6133;SDS011;3098;42.678;23.364;2024-03-08T14:56:48;3.15;;;1.60;;
6133;SDS011;3098;42.678;23.364;2024-03-08T14:59:15;3.13;;;1.55;;
6133;SDS011;3098;42.678;23.364;2024-03-08T15:01:41;2.47;;;1.05;;
6133;SDS011;3098;42.678;23.364;2024-03-08T15:04:09;3.05;;;1.80;;
6133;SDS011;3098;42.678;23.364;2024-03-08T15:06:35;3.65;;;1.77;;
6133;SDS011;3098;42.678;23.364;2024-03-08T15:09:02;3.05;;;2.05;;
6133;SDS011;3098;42.678;23.364;2024-03-08T15:11:44;4.53;;;2.13;;
6133;SDS011;3098;42.678;23.364;2024-03-08T15:14:15;3.58;;;1.40;;